sensor_id;sensor_type;location;lat;lon;timestamp;P1;durP1;ratioP1;P2;durP2;ratioP2
1811;SDS011;904;47.814;11.134;2023-04-03T00:01:00;9.57;;;7.38;;
1811;SDS011;904;47.814;11.134;2023-04-03T00:03:27;9.00;;;6.93;;
1811;SDS011;904;47.814;11.134;2023-04-03T00:05:56;8.43;;;6.80;;
1811;SDS011;904;47.814;11.134;2023-04-03T00:08:23;9.93;;;7.68;;
1811;SDS011;904;47.814;11.134;2023-04-03T00:10:51;8.02;;;6.68;;
1811;SDS011;904;47.814;11.134;2023-04-03T00:13:18;10.68;;;7.68;;
1811;SDS011;904;47.814;11.134;2023-04-03T00:15:46;10.05;;;7.20;;
1811;SDS011;904;47.814;11.134;2023-04-03T00:18:17;8.10;;;6.95;;
1811;SDS011;904;47.814;11.134;2023-04-03T00:20:44;8.73;;;6.72;;
1811;SDS011;904;47.814;11.134;2023-04-03T00:23:13;9.77;;;7.10;;
1811;SDS011;904;47.814;11.134;2023-04-03T00:25:43;9.95;;;6.85;;
1811;SDS011;904;47.814;11.134;2023-04-03T00:28:10;10.13;;;7.18;;
1811;SDS011;904;47.814;11.134;2023-04-03T00:30:38;10.52;;;7.50;;
1811;SDS011;904;47.814;11.134;2023-04-03T00:33:05;9.32;;;7.00;;
1811;SDS011;904;47.814;11.134;2023-04-03T00:35:33;10.27;;;6.70;;
1811;SDS011;904;47.814;11.134;2023-04-03T00:38:01;12.40;;;8.50;;
1811;SDS011;904;47.814;11.134;2023-04-03T00:40:33;11.40;;;7.25;;
1811;SDS011;904;47.814;11.134;2023-04-03T00:43:01;10.45;;;6.95;;
1811;SDS011;904;47.814;11.134;2023-04-03T00:45:33;11.10;;;7.32;;
1811;SDS011;904;47.814;11.134;2023-04-03T00:48:02;8.73;;;6.93;;
1811;SDS011;904;47.814;11.134;2023-04-03T00:50:32;10.02;;;7.00;;
1811;SDS011;904;47.814;11.134;2023-04-03T00:53:01;10.77;;;6.72;;
1811;SDS011;904;47.814;11.134;2023-04-03T00:55:31;8.60;;;6.22;;
1811;SDS011;904;47.814;11.134;2023-04-03T00:58:00;8.57;;;6.38;;
1811;SDS011;904;47.814;11.134;2023-04-03T01:00:28;10.52;;;7.00;;
1811;SDS011;904;47.814;11.134;2023-04-03T01:02:58;8.93;;;7.07;;
1811;SDS011;904;47.814;11.134;2023-04-03T01:05:26;9.30;;;6.15;;
1811;SDS011;904;47.814;11.134;2023-04-03T01:07:53;7.47;;;5.50;;
1811;SDS011;904;47.814;11.134;2023-04-03T01:10:21;8.02;;;5.93;;
1811;SDS011;904;47.814;11.134;2023-04-03T01:12:50;6.68;;;5.15;;
1811;SDS011;904;47.814;11.134;2023-04-03T01:15:19;7.47;;;6.30;;
1811;SDS011;904;47.814;11.134;2023-04-03T01:17:48;13.93;;;7.28;;
1811;SDS011;904;47.814;11.134;2023-04-03T01:23:35;10.30;;;5.88;;
1811;SDS011;904;47.814;11.134;2023-04-03T01:26:14;10.85;;;7.15;;
1811;SDS011;904;47.814;11.134;2023-04-03T01:28:43;13.10;;;5.70;;
1811;SDS011;904;47.814;11.134;2023-04-03T01:31:12;14.18;;;6.60;;
1811;SDS011;904;47.814;11.134;2023-04-03T01:33:47;7.60;;;5.60;;
1811;SDS011;904;47.814;11.134;2023-04-03T01:36:15;10.05;;;6.82;;
1811;SDS011;904;47.814;11.134;2023-04-03T01:38:44;8.65;;;6.60;;
1811;SDS011;904;47.814;11.134;2023-04-03T01:41:11;11.98;;;6.68;;
1811;SDS011;904;47.814;11.134;2023-04-03T01:43:39;13.82;;;6.72;;
1811;SDS011;904;47.814;11.134;2023-04-03T01:46:09;10.57;;;7.07;;
1811;SDS011;904;47.814;11.134;2023-04-03T01:48:37;8.90;;;5.60;;
1811;SDS011;904;47.814;11.134;2023-04-03T01:51:10;8.90;;;6.22;;
1811;SDS011;904;47.814;11.134;2023-04-03T01:53:37;8.05;;;6.10;;
1811;SDS011;904;47.814;11.134;2023-04-03T01:56:05;8.02;;;6.47;;
1811;SDS011;904;47.814;11.134;2023-04-03T01:58:33;9.73;;;7.25;;
1811;SDS011;904;47.814;11.134;2023-04-03T02:01:00;9.20;;;7.30;;
1811;SDS011;904;47.814;11.134;2023-04-03T02:03:28;8.32;;;6.03;;
1811;SDS011;904;47.814;11.134;2023-04-03T02:05:56;8.80;;;6.47;;
1811;SDS011;904;47.814;11.134;2023-04-03T02:08:24;12.13;;;6.30;;
1811;SDS011;904;47.814;11.134;2023-04-03T02:10:51;9.00;;;6.47;;
1811;SDS011;904;47.814;11.134;2023-04-03T02:13:19;10.77;;;6.38;;
1811;SDS011;904;47.814;11.134;2023-04-03T02:15:46;7.78;;;5.57;;
1811;SDS011;904;47.814;11.134;2023-04-03T02:18:14;7.90;;;5.88;;
1811;SDS011;904;47.814;11.134;2023-04-03T02:20:41;10.15;;;7.22;;
1811;SDS011;904;47.814;11.134;2023-04-03T02:23:09;8.88;;;6.93;;
1811;SDS011;904;47.814;11.134;2023-04-03T02:25:37;10.45;;;6.00;;
1811;SDS011;904;47.814;11.134;2023-04-03T02:28:05;8.52;;;5.85;;
1811;SDS011;904;47.814;11.134;2023-04-03T02:30:32;8.48;;;6.47;;
1811;SDS011;904;47.814;11.134;2023-04-03T02:33:00;9.57;;;6.32;;
1811;SDS011;904;47.814;11.134;2023-04-03T02:35:31;7.10;;;6.10;;
1811;SDS011;904;47.814;11.134;2023-04-03T02:37:59;11.35;;;6.78;;
1811;SDS011;904;47.814;11.134;2023-04-03T02:40:27;7.03;;;5.65;;
1811;SDS011;904;47.814;11.134;2023-04-03T02:43:00;9.52;;;6.18;;
1811;SDS011;904;47.814;11.134;2023-04-03T02:45:28;7.50;;;5.63;;
1811;SDS011;904;47.814;11.134;2023-04-03T02:47:55;8.52;;;6.57;;
1811;SDS011;904;47.814;11.134;2023-04-03T02:50:22;10.00;;;6.32;;
1811;SDS011;904;47.814;11.134;2023-04-03T02:52:51;9.77;;;6.95;;
1811;SDS011;904;47.814;11.134;2023-04-03T02:55:21;8.13;;;6.03;;
1811;SDS011;904;47.814;11.134;2023-04-03T02:57:48;7.53;;;5.55;;
1811;SDS011;904;47.814;11.134;2023-04-03T03:00:19;8.70;;;5.57;;
1811;SDS011;904;47.814;11.134;2023-04-03T03:02:48;8.32;;;5.57;;
1811;SDS011;904;47.814;11.134;2023-04-03T03:05:16;7.82;;;5.90;;
1811;SDS011;904;47.814;11.134;2023-04-03T03:07:43;10.52;;;6.95;;
1811;SDS011;904;47.814;11.134;2023-04-03T03:10:11;7.80;;;5.15;;
1811;SDS011;904;47.814;11.134;2023-04-03T03:12:38;8.70;;;5.90;;
1811;SDS011;904;47.814;11.134;2023-04-03T03:15:06;6.82;;;5.63;;
1811;SDS011;904;47.814;11.134;2023-04-03T03:17:35;6.82;;;5.25;;
1811;SDS011;904;47.814;11.134;2023-04-03T03:20:03;7.43;;;5.97;;
1811;SDS011;904;47.814;11.134;2023-04-03T03:22:32;7.55;;;5.55;;
1811;SDS011;904;47.814;11.134;2023-04-03T03:24:59;8.45;;;6.85;;
1811;SDS011;904;47.814;11.134;2023-04-03T03:27:27;8.18;;;5.47;;
1811;SDS011;904;47.814;11.134;2023-04-03T03:29:54;8.43;;;6.15;;
1811;SDS011;904;47.814;11.134;2023-04-03T03:32:22;9.85;;;5.80;;
1811;SDS011;904;47.814;11.134;2023-04-03T03:34:50;7.80;;;5.82;;
1811;SDS011;904;47.814;11.134;2023-04-03T03:37:18;8.00;;;6.60;;
1811;SDS011;904;47.814;11.134;2023-04-03T03:39:45;6.80;;;5.40;;
1811;SDS011;904;47.814;11.134;2023-04-03T03:42:12;7.18;;;5.90;;
1811;SDS011;904;47.814;11.134;2023-04-03T03:44:40;9.68;;;6.75;;
1811;SDS011;904;47.814;11.134;2023-04-03T03:47:07;8.65;;;5.68;;
1811;SDS011;904;47.814;11.134;2023-04-03T03:49:35;9.50;;;5.28;;
1811;SDS011;904;47.814;11.134;2023-04-03T03:52:05;7.20;;;5.40;;
1811;SDS011;904;47.814;11.134;2023-04-03T03:54:35;9.23;;;5.30;;
1811;SDS011;904;47.814;11.134;2023-04-03T03:57:02;9.75;;;5.30;;
1811;SDS011;904;47.814;11.134;2023-04-03T03:59:30;7.18;;;6.03;;
1811;SDS011;904;47.814;11.134;2023-04-03T04:01:58;7.13;;;5.88;;
1811;SDS011;904;47.814;11.134;2023-04-03T04:04:25;8.50;;;6.20;;
1811;SDS011;904;47.814;11.134;2023-04-03T04:06:53;7.68;;;5.57;;
1811;SDS011;904;47.814;11.134;2023-04-03T04:09:22;7.25;;;5.38;;
1811;SDS011;904;47.814;11.134;2023-04-03T04:11:50;8.52;;;5.60;;
1811;SDS011;904;47.814;11.134;2023-04-03T04:14:17;7.80;;;5.22;;
1811;SDS011;904;47.814;11.134;2023-04-03T04:16:45;8.80;;;5.47;;
1811;SDS011;904;47.814;11.134;2023-04-03T04:19:13;6.07;;;5.45;;
1811;SDS011;904;47.814;11.134;2023-04-03T04:21:40;6.70;;;5.55;;
1811;SDS011;904;47.814;11.134;2023-04-03T04:24:07;7.55;;;6.00;;
1811;SDS011;904;47.814;11.134;2023-04-03T04:26:36;8.77;;;6.32;;
1811;SDS011;904;47.814;11.134;2023-04-03T04:29:04;6.22;;;5.07;;
1811;SDS011;904;47.814;11.134;2023-04-03T04:31:31;10.15;;;5.53;;
1811;SDS011;904;47.814;11.134;2023-04-03T04:33:58;7.22;;;5.63;;
1811;SDS011;904;47.814;11.134;2023-04-03T04:36:26;11.10;;;6.07;;
1811;SDS011;904;47.814;11.134;2023-04-03T04:38:53;7.93;;;5.90;;
1811;SDS011;904;47.814;11.134;2023-04-03T04:41:21;8.68;;;6.90;;
1811;SDS011;904;47.814;11.134;2023-04-03T04:43:51;14.95;;;7.10;;
1811;SDS011;904;47.814;11.134;2023-04-03T04:46:18;12.07;;;6.55;;
1811;SDS011;904;47.814;11.134;2023-04-03T04:48:46;7.22;;;6.03;;
1811;SDS011;904;47.814;11.134;2023-04-03T04:51:16;8.93;;;6.72;;
1811;SDS011;904;47.814;11.134;2023-04-03T04:53:44;11.85;;;6.07;;
1811;SDS011;904;47.814;11.134;2023-04-03T04:56:11;7.93;;;6.70;;
1811;SDS011;904;47.814;11.134;2023-04-03T04:58:38;7.18;;;5.55;;
1811;SDS011;904;47.814;11.134;2023-04-03T05:01:11;7.05;;;5.85;;
1811;SDS011;904;47.814;11.134;2023-04-03T05:03:39;8.13;;;5.72;;
1811;SDS011;904;47.814;11.134;2023-04-03T05:06:06;8.38;;;6.30;;
1811;SDS011;904;47.814;11.134;2023-04-03T05:08:33;7.68;;;6.32;;
1811;SDS011;904;47.814;11.134;2023-04-03T05:11:00;11.07;;;6.50;;
1811;SDS011;904;47.814;11.134;2023-04-03T05:13:28;7.70;;;5.82;;
1811;SDS011;904;47.814;11.134;2023-04-03T05:15:55;7.68;;;6.20;;
1811;SDS011;904;47.814;11.134;2023-04-03T05:18:24;9.00;;;6.55;;
1811;SDS011;904;47.814;11.134;2023-04-03T05:20:52;7.53;;;5.85;;
1811;SDS011;904;47.814;11.134;2023-04-03T05:23:19;8.65;;;5.65;;
1811;SDS011;904;47.814;11.134;2023-04-03T05:25:48;10.50;;;6.82;;
1811;SDS011;904;47.814;11.134;2023-04-03T05:28:15;10.25;;;7.00;;
1811;SDS011;904;47.814;11.134;2023-04-03T05:30:43;9.65;;;6.47;;
1811;SDS011;904;47.814;11.134;2023-04-03T05:33:16;8.27;;;7.35;;
1811;SDS011;904;47.814;11.134;2023-04-03T05:35:45;7.88;;;5.80;;
1811;SDS011;904;47.814;11.134;2023-04-03T05:38:17;10.23;;;6.40;;
1811;SDS011;904;47.814;11.134;2023-04-03T05:40:45;10.50;;;6.95;;
1811;SDS011;904;47.814;11.134;2023-04-03T05:43:21;9.88;;;6.63;;
1811;SDS011;904;47.814;11.134;2023-04-03T05:45:48;9.18;;;6.20;;
1811;SDS011;904;47.814;11.134;2023-04-03T05:48:20;14.60;;;7.95;;
1811;SDS011;904;47.814;11.134;2023-04-03T05:51:02;10.63;;;6.78;;
1811;SDS011;904;47.814;11.134;2023-04-03T05:53:33;9.52;;;6.00;;
1811;SDS011;904;47.814;11.134;2023-04-03T05:56:03;9.75;;;7.07;;
1811;SDS011;904;47.814;11.134;2023-04-03T05:58:30;8.93;;;6.35;;
1811;SDS011;904;47.814;11.134;2023-04-03T06:01:00;10.30;;;6.75;;
1811;SDS011;904;47.814;11.134;2023-04-03T06:03:27;7.15;;;6.05;;
1811;SDS011;904;47.814;11.134;2023-04-03T06:05:57;8.57;;;6.15;;
1811;SDS011;904;47.814;11.134;2023-04-03T06:08:26;10.05;;;6.80;;
1811;SDS011;904;47.814;11.134;2023-04-03T06:10:53;11.23;;;7.38;;
1811;SDS011;904;47.814;11.134;2023-04-03T06:13:21;10.50;;;7.05;;
1811;SDS011;904;47.814;11.134;2023-04-03T06:15:49;6.72;;;5.82;;
1811;SDS011;904;47.814;11.134;2023-04-03T06:18:21;9.70;;;6.78;;
1811;SDS011;904;47.814;11.134;2023-04-03T06:20:48;8.30;;;6.65;;
1811;SDS011;904;47.814;11.134;2023-04-03T06:23:16;13.02;;;7.70;;
1811;SDS011;904;47.814;11.134;2023-04-03T06:25:46;13.25;;;7.75;;
1811;SDS011;904;47.814;11.134;2023-04-03T06:28:13;9.43;;;6.35;;
1811;SDS011;904;47.814;11.134;2023-04-03T06:30:42;10.02;;;7.03;;
1811;SDS011;904;47.814;11.134;2023-04-03T06:33:10;9.70;;;6.72;;
1811;SDS011;904;47.814;11.134;2023-04-03T06:35:46;9.82;;;6.53;;
1811;SDS011;904;47.814;11.134;2023-04-03T06:38:18;9.95;;;7.82;;
1811;SDS011;904;47.814;11.134;2023-04-03T06:40:52;7.30;;;5.82;;
1811;SDS011;904;47.814;11.134;2023-04-03T06:43:19;8.82;;;6.63;;
1811;SDS011;904;47.814;11.134;2023-04-03T06:45:47;6.60;;;5.28;;
1811;SDS011;904;47.814;11.134;2023-04-03T06:48:14;8.45;;;6.80;;
1811;SDS011;904;47.814;11.134;2023-04-03T06:50:41;7.95;;;5.85;;
1811;SDS011;904;47.814;11.134;2023-04-03T06:53:09;8.05;;;6.15;;
1811;SDS011;904;47.814;11.134;2023-04-03T06:55:37;8.38;;;5.90;;
1811;SDS011;904;47.814;11.134;2023-04-03T06:58:05;8.35;;;6.20;;
1811;SDS011;904;47.814;11.134;2023-04-03T07:00:33;7.25;;;6.15;;
1811;SDS011;904;47.814;11.134;2023-04-03T07:03:00;9.10;;;6.43;;
1811;SDS011;904;47.814;11.134;2023-04-03T07:05:28;7.35;;;5.68;;
1811;SDS011;904;47.814;11.134;2023-04-03T07:07:57;8.23;;;6.07;;
1811;SDS011;904;47.814;11.134;2023-04-03T07:10:24;7.97;;;5.85;;
1811;SDS011;904;47.814;11.134;2023-04-03T07:12:53;7.90;;;5.88;;
1811;SDS011;904;47.814;11.134;2023-04-03T07:15:22;8.13;;;7.22;;
1811;SDS011;904;47.814;11.134;2023-04-03T07:17:49;8.50;;;5.82;;
1811;SDS011;904;47.814;11.134;2023-04-03T07:20:16;6.57;;;4.90;;
1811;SDS011;904;47.814;11.134;2023-04-03T07:22:48;10.20;;;5.72;;
1811;SDS011;904;47.814;11.134;2023-04-03T07:25:16;9.43;;;6.72;;
1811;SDS011;904;47.814;11.134;2023-04-03T07:27:43;7.88;;;5.57;;
1811;SDS011;904;47.814;11.134;2023-04-03T07:30:10;8.00;;;5.30;;
1811;SDS011;904;47.814;11.134;2023-04-03T07:32:40;7.28;;;5.32;;
1811;SDS011;904;47.814;11.134;2023-04-03T07:35:07;6.20;;;5.18;;
1811;SDS011;904;47.814;11.134;2023-04-03T07:37:35;6.05;;;5.07;;
1811;SDS011;904;47.814;11.134;2023-04-03T07:40:01;5.15;;;4.57;;
1811;SDS011;904;47.814;11.134;2023-04-03T07:42:29;5.85;;;5.00;;
1811;SDS011;904;47.814;11.134;2023-04-03T07:44:56;4.22;;;3.80;;
1811;SDS011;904;47.814;11.134;2023-04-03T07:47:23;5.30;;;4.07;;
1811;SDS011;904;47.814;11.134;2023-04-03T07:49:52;9.02;;;4.95;;
1811;SDS011;904;47.814;11.134;2023-04-03T07:52:19;5.65;;;4.43;;
1811;SDS011;904;47.814;11.134;2023-04-03T07:54:46;5.90;;;4.93;;
1811;SDS011;904;47.814;11.134;2023-04-03T07:57:15;5.95;;;3.95;;
1811;SDS011;904;47.814;11.134;2023-04-03T07:59:42;4.97;;;4.22;;
1811;SDS011;904;47.814;11.134;2023-04-03T08:02:09;8.52;;;5.18;;
1811;SDS011;904;47.814;11.134;2023-04-03T08:04:36;5.05;;;4.28;;
1811;SDS011;904;47.814;11.134;2023-04-03T08:07:05;6.18;;;5.03;;
1811;SDS011;904;47.814;11.134;2023-04-03T08:09:32;5.85;;;4.40;;
1811;SDS011;904;47.814;11.134;2023-04-03T08:11:59;5.20;;;4.43;;
1811;SDS011;904;47.814;11.134;2023-04-03T08:14:27;4.95;;;3.95;;
1811;SDS011;904;47.814;11.134;2023-04-03T08:16:59;5.80;;;4.35;;
1811;SDS011;904;47.814;11.134;2023-04-03T08:19:32;5.18;;;3.50;;
1811;SDS011;904;47.814;11.134;2023-04-03T08:21:59;8.07;;;4.28;;
1811;SDS011;904;47.814;11.134;2023-04-03T08:24:29;5.40;;;3.35;;
1811;SDS011;904;47.814;11.134;2023-04-03T08:26:56;5.45;;;3.67;;
1811;SDS011;904;47.814;11.134;2023-04-03T08:29:24;5.85;;;4.00;;
1811;SDS011;904;47.814;11.134;2023-04-03T08:31:51;5.65;;;3.45;;
1811;SDS011;904;47.814;11.134;2023-04-03T08:34:25;6.00;;;4.10;;
1811;SDS011;904;47.814;11.134;2023-04-03T08:36:54;4.53;;;3.90;;
1811;SDS011;904;47.814;11.134;2023-04-03T08:39:21;5.28;;;3.20;;
1811;SDS011;904;47.814;11.134;2023-04-03T08:41:49;7.20;;;3.78;;
1811;SDS011;904;47.814;11.134;2023-04-03T08:44:22;3.75;;;3.05;;
1811;SDS011;904;47.814;11.134;2023-04-03T08:47:06;5.00;;;3.90;;
1811;SDS011;904;47.814;11.134;2023-04-03T08:49:43;5.15;;;3.70;;
1811;SDS011;904;47.814;11.134;2023-04-03T08:52:17;5.68;;;3.58;;
1811;SDS011;904;47.814;11.134;2023-04-03T08:54:51;4.28;;;3.10;;
1811;SDS011;904;47.814;11.134;2023-04-03T08:57:26;5.68;;;3.40;;
1811;SDS011;904;47.814;11.134;2023-04-03T08:59:57;5.78;;;3.78;;
1811;SDS011;904;47.814;11.134;2023-04-03T09:02:27;4.43;;;3.40;;
1811;SDS011;904;47.814;11.134;2023-04-03T09:04:59;5.65;;;4.35;;
1811;SDS011;904;47.814;11.134;2023-04-03T09:07:30;4.00;;;3.33;;
1811;SDS011;904;47.814;11.134;2023-04-03T09:10:03;7.75;;;4.18;;
1811;SDS011;904;47.814;11.134;2023-04-03T09:12:34;5.40;;;4.25;;
1811;SDS011;904;47.814;11.134;2023-04-03T09:15:09;4.95;;;3.58;;
1811;SDS011;904;47.814;11.134;2023-04-03T09:17:46;5.22;;;3.78;;
1811;SDS011;904;47.814;11.134;2023-04-03T09:20:24;4.20;;;3.15;;
1811;SDS011;904;47.814;11.134;2023-04-03T09:22:59;5.25;;;3.33;;
1811;SDS011;904;47.814;11.134;2023-04-03T09:25:27;6.75;;;3.70;;
1811;SDS011;904;47.814;11.134;2023-04-03T09:28:01;4.07;;;3.10;;
1811;SDS011;904;47.814;11.134;2023-04-03T09:30:28;4.32;;;3.22;;
1811;SDS011;904;47.814;11.134;2023-04-03T09:32:56;5.30;;;3.60;;
1811;SDS011;904;47.814;11.134;2023-04-03T09:35:25;4.13;;;2.95;;
1811;SDS011;904;47.814;11.134;2023-04-03T09:37:54;8.60;;;3.00;;
1811;SDS011;904;47.814;11.134;2023-04-03T09:40:29;4.03;;;3.47;;
1811;SDS011;904;47.814;11.134;2023-04-03T09:43:01;7.10;;;2.95;;
1811;SDS011;904;47.814;11.134;2023-04-03T09:45:45;4.22;;;3.42;;
1811;SDS011;904;47.814;11.134;2023-04-03T09:48:15;4.43;;;3.10;;
1811;SDS011;904;47.814;11.134;2023-04-03T09:50:57;3.40;;;2.95;;
1811;SDS011;904;47.814;11.134;2023-04-03T09:53:33;4.47;;;2.85;;
1811;SDS011;904;47.814;11.134;2023-04-03T09:56:03;10.13;;;3.65;;
1811;SDS011;904;47.814;11.134;2023-04-03T09:58:33;5.05;;;3.50;;
1811;SDS011;904;47.814;11.134;2023-04-03T10:01:05;3.53;;;2.70;;
1811;SDS011;904;47.814;11.134;2023-04-03T10:03:33;4.25;;;3.05;;
1811;SDS011;904;47.814;11.134;2023-04-03T10:06:02;3.78;;;2.90;;
1811;SDS011;904;47.814;11.134;2023-04-03T10:08:31;3.95;;;3.28;;
1811;SDS011;904;47.814;11.134;2023-04-03T10:11:06;5.55;;;3.85;;
1811;SDS011;904;47.814;11.134;2023-04-03T10:13:36;5.30;;;4.00;;
1811;SDS011;904;47.814;11.134;2023-04-03T10:16:17;3.40;;;3.08;;
1811;SDS011;904;47.814;11.134;2023-04-03T10:18:47;3.70;;;2.72;;
1811;SDS011;904;47.814;11.134;2023-04-03T10:21:23;4.07;;;3.00;;
1811;SDS011;904;47.814;11.134;2023-04-03T10:24:02;4.10;;;3.15;;
1811;SDS011;904;47.814;11.134;2023-04-03T10:26:36;4.22;;;3.65;;
1811;SDS011;904;47.814;11.134;2023-04-03T10:29:15;5.68;;;3.30;;
1811;SDS011;904;47.814;11.134;2023-04-03T10:31:51;4.22;;;2.80;;
1811;SDS011;904;47.814;11.134;2023-04-03T10:34:27;4.10;;;3.40;;
1811;SDS011;904;47.814;11.134;2023-04-03T10:36:58;4.20;;;2.90;;
1811;SDS011;904;47.814;11.134;2023-04-03T10:39:32;4.63;;;2.53;;
1811;SDS011;904;47.814;11.134;2023-04-03T10:42:08;5.75;;;2.65;;
1811;SDS011;904;47.814;11.134;2023-04-03T10:44:46;5.18;;;3.30;;
1811;SDS011;904;47.814;11.134;2023-04-03T10:47:21;5.13;;;3.30;;
1811;SDS011;904;47.814;11.134;2023-04-03T10:49:54;4.40;;;3.70;;
1811;SDS011;904;47.814;11.134;2023-04-03T10:52:28;4.75;;;3.00;;
1811;SDS011;904;47.814;11.134;2023-04-03T10:55:04;3.75;;;2.80;;
1811;SDS011;904;47.814;11.134;2023-04-03T10:57:40;3.72;;;2.58;;
1811;SDS011;904;47.814;11.134;2023-04-03T11:00:14;4.78;;;3.00;;
1811;SDS011;904;47.814;11.134;2023-04-03T11:02:45;4.18;;;3.10;;
1811;SDS011;904;47.814;11.134;2023-04-03T11:05:18;3.42;;;2.78;;
1811;SDS011;904;47.814;11.134;2023-04-03T11:07:53;3.00;;;2.58;;
1811;SDS011;904;47.814;11.134;2023-04-03T11:10:23;5.00;;;3.35;;
1811;SDS011;904;47.814;11.134;2023-04-03T11:12:56;5.88;;;3.42;;
1811;SDS011;904;47.814;11.134;2023-04-03T11:15:30;3.72;;;2.80;;
1811;SDS011;904;47.814;11.134;2023-04-03T11:18:00;4.80;;;3.22;;
1811;SDS011;904;47.814;11.134;2023-04-03T11:20:32;5.43;;;4.28;;
1811;SDS011;904;47.814;11.134;2023-04-03T11:23:03;5.10;;;3.33;;
1811;SDS011;904;47.814;11.134;2023-04-03T11:25:32;4.10;;;3.35;;
1811;SDS011;904;47.814;11.134;2023-04-03T11:28:03;8.20;;;3.38;;
1811;SDS011;904;47.814;11.134;2023-04-03T11:30:36;4.63;;;3.08;;
1811;SDS011;904;47.814;11.134;2023-04-03T11:33:21;3.88;;;2.92;;
1811;SDS011;904;47.814;11.134;2023-04-03T11:35:58;4.18;;;3.53;;
1811;SDS011;904;47.814;11.134;2023-04-03T11:38:30;4.20;;;3.20;;
1811;SDS011;904;47.814;11.134;2023-04-03T11:41:03;5.05;;;4.20;;
1811;SDS011;904;47.814;11.134;2023-04-03T11:43:32;5.35;;;3.67;;
1811;SDS011;904;47.814;11.134;2023-04-03T11:46:07;3.40;;;2.78;;
1811;SDS011;904;47.814;11.134;2023-04-03T11:48:42;3.70;;;3.00;;
1811;SDS011;904;47.814;11.134;2023-04-03T11:51:38;3.70;;;2.38;;
1811;SDS011;904;47.814;11.134;2023-04-03T12:03:33;3.50;;;2.75;;
1811;SDS011;904;47.814;11.134;2023-04-03T12:09:24;5.28;;;2.92;;
1811;SDS011;904;47.814;11.134;2023-04-03T12:11:52;3.72;;;2.97;;
1811;SDS011;904;47.814;11.134;2023-04-03T12:14:22;4.85;;;2.88;;
1811;SDS011;904;47.814;11.134;2023-04-03T12:16:50;5.20;;;3.90;;
1811;SDS011;904;47.814;11.134;2023-04-03T12:19:29;11.93;;;3.75;;
1811;SDS011;904;47.814;11.134;2023-04-03T12:22:16;5.53;;;4.22;;
1811;SDS011;904;47.814;11.134;2023-04-03T12:24:46;3.97;;;2.92;;
1811;SDS011;904;47.814;11.134;2023-04-03T12:30:19;5.72;;;3.00;;
1811;SDS011;904;47.814;11.134;2023-04-03T12:32:58;3.47;;;2.22;;
1811;SDS011;904;47.814;11.134;2023-04-03T12:35:37;6.68;;;3.60;;
1811;SDS011;904;47.814;11.134;2023-04-03T12:38:18;4.30;;;2.80;;
1811;SDS011;904;47.814;11.134;2023-04-03T12:41:10;3.88;;;2.97;;
1811;SDS011;904;47.814;11.134;2023-04-03T12:43:56;4.13;;;3.40;;
1811;SDS011;904;47.814;11.134;2023-04-03T12:46:38;4.53;;;3.33;;
1811;SDS011;904;47.814;11.134;2023-04-03T12:49:20;5.43;;;2.85;;
1811;SDS011;904;47.814;11.134;2023-04-03T12:51:58;4.20;;;2.63;;
1811;SDS011;904;47.814;11.134;2023-04-03T12:54:26;4.05;;;3.33;;
1811;SDS011;904;47.814;11.134;2023-04-03T12:57:08;5.30;;;2.80;;
1811;SDS011;904;47.814;11.134;2023-04-03T12:59:36;6.18;;;3.13;;
1811;SDS011;904;47.814;11.134;2023-04-03T13:02:10;4.63;;;2.97;;
1811;SDS011;904;47.814;11.134;2023-04-03T13:04:48;5.53;;;2.95;;
1811;SDS011;904;47.814;11.134;2023-04-03T13:07:22;4.45;;;3.97;;
1811;SDS011;904;47.814;11.134;2023-04-03T13:09:55;4.70;;;3.20;;
1811;SDS011;904;47.814;11.134;2023-04-03T13:12:28;4.80;;;2.70;;
1811;SDS011;904;47.814;11.134;2023-04-03T13:14:56;4.47;;;2.78;;
1811;SDS011;904;47.814;11.134;2023-04-03T13:17:25;3.17;;;2.53;;
1811;SDS011;904;47.814;11.134;2023-04-03T13:20:09;4.55;;;3.38;;
1811;SDS011;904;47.814;11.134;2023-04-03T13:22:39;3.90;;;3.15;;
1811;SDS011;904;47.814;11.134;2023-04-03T13:25:14;7.35;;;2.58;;
1811;SDS011;904;47.814;11.134;2023-04-03T13:27:43;5.53;;;2.95;;
1811;SDS011;904;47.814;11.134;2023-04-03T13:30:20;5.15;;;2.95;;
1811;SDS011;904;47.814;11.134;2023-04-03T13:32:51;5.38;;;3.30;;
1811;SDS011;904;47.814;11.134;2023-04-03T13:35:26;5.25;;;2.67;;
1811;SDS011;904;47.814;11.134;2023-04-03T13:37:58;5.50;;;3.88;;
1811;SDS011;904;47.814;11.134;2023-04-03T13:40:27;5.57;;;3.03;;
1811;SDS011;904;47.814;11.134;2023-04-03T13:43:04;3.65;;;2.75;;
1811;SDS011;904;47.814;11.134;2023-04-03T13:45:56;6.05;;;3.08;;
1811;SDS011;904;47.814;11.134;2023-04-03T13:48:26;4.57;;;3.45;;
1811;SDS011;904;47.814;11.134;2023-04-03T13:51:04;4.45;;;2.95;;
1811;SDS011;904;47.814;11.134;2023-04-03T13:53:34;4.80;;;2.92;;
1811;SDS011;904;47.814;11.134;2023-04-03T13:56:15;6.75;;;3.42;;
1811;SDS011;904;47.814;11.134;2023-04-03T13:58:52;4.88;;;3.30;;
1811;SDS011;904;47.814;11.134;2023-04-03T14:01:22;4.50;;;3.00;;
1811;SDS011;904;47.814;11.134;2023-04-03T14:03:52;5.20;;;3.30;;
1811;SDS011;904;47.814;11.134;2023-04-03T14:06:22;6.88;;;2.90;;
1811;SDS011;904;47.814;11.134;2023-04-03T14:08:51;4.97;;;3.10;;
1811;SDS011;904;47.814;11.134;2023-04-03T14:11:19;3.85;;;2.85;;
1811;SDS011;904;47.814;11.134;2023-04-03T14:13:48;4.15;;;2.78;;
1811;SDS011;904;47.814;11.134;2023-04-03T14:16:17;4.55;;;2.85;;
1811;SDS011;904;47.814;11.134;2023-04-03T14:18:46;5.72;;;3.30;;
1811;SDS011;904;47.814;11.134;2023-04-03T14:21:16;4.97;;;2.70;;
1811;SDS011;904;47.814;11.134;2023-04-03T14:23:44;4.97;;;2.33;;
1811;SDS011;904;47.814;11.134;2023-04-03T14:26:13;5.32;;;3.13;;
1811;SDS011;904;47.814;11.134;2023-04-03T14:28:43;6.38;;;2.88;;
1811;SDS011;904;47.814;11.134;2023-04-03T14:31:10;4.45;;;2.45;;
1811;SDS011;904;47.814;11.134;2023-04-03T14:33:38;3.53;;;2.47;;
1811;SDS011;904;47.814;11.134;2023-04-03T14:36:10;3.33;;;2.58;;
1811;SDS011;904;47.814;11.134;2023-04-03T14:38:39;3.90;;;2.83;;
1811;SDS011;904;47.814;11.134;2023-04-03T14:41:07;3.65;;;2.97;;
1811;SDS011;904;47.814;11.134;2023-04-03T14:43:35;5.13;;;2.92;;
1811;SDS011;904;47.814;11.134;2023-04-03T14:46:04;6.68;;;3.30;;
1811;SDS011;904;47.814;11.134;2023-04-03T14:48:31;3.47;;;2.53;;
1811;SDS011;904;47.814;11.134;2023-04-03T14:51:03;5.50;;;2.60;;
1811;SDS011;904;47.814;11.134;2023-04-03T14:53:30;4.65;;;1.80;;
1811;SDS011;904;47.814;11.134;2023-04-03T14:55:57;4.15;;;2.75;;
1811;SDS011;904;47.814;11.134;2023-04-03T14:58:24;4.20;;;2.85;;
1811;SDS011;904;47.814;11.134;2023-04-03T15:00:53;3.90;;;2.70;;
1811;SDS011;904;47.814;11.134;2023-04-03T15:03:20;3.38;;;2.25;;
1811;SDS011;904;47.814;11.134;2023-04-03T15:05:48;3.15;;;2.30;;
1811;SDS011;904;47.814;11.134;2023-04-03T15:08:19;3.17;;;2.10;;
1811;SDS011;904;47.814;11.134;2023-04-03T15:10:54;2.95;;;2.10;;
1811;SDS011;904;47.814;11.134;2023-04-03T15:13:21;3.40;;;2.25;;
1811;SDS011;904;47.814;11.134;2023-04-03T15:15:49;3.63;;;2.40;;
1811;SDS011;904;47.814;11.134;2023-04-03T15:18:19;2.85;;;2.08;;
1811;SDS011;904;47.814;11.134;2023-04-03T15:20:48;6.35;;;2.60;;
1811;SDS011;904;47.814;11.134;2023-04-03T15:23:16;4.65;;;2.33;;
1811;SDS011;904;47.814;11.134;2023-04-03T15:25:43;3.75;;;2.33;;
1811;SDS011;904;47.814;11.134;2023-04-03T15:28:14;5.88;;;2.22;;
1811;SDS011;904;47.814;11.134;2023-04-03T15:30:45;3.63;;;2.28;;
1811;SDS011;904;47.814;11.134;2023-04-03T15:33:12;4.47;;;3.05;;
1811;SDS011;904;47.814;11.134;2023-04-03T15:35:42;4.95;;;2.42;;
1811;SDS011;904;47.814;11.134;2023-04-03T15:38:09;3.63;;;2.67;;
1811;SDS011;904;47.814;11.134;2023-04-03T15:40:36;3.40;;;2.20;;
1811;SDS011;904;47.814;11.134;2023-04-03T15:43:04;3.40;;;2.33;;
1811;SDS011;904;47.814;11.134;2023-04-03T15:45:31;4.10;;;2.30;;
1811;SDS011;904;47.814;11.134;2023-04-03T15:48:02;5.13;;;2.35;;
1811;SDS011;904;47.814;11.134;2023-04-03T15:50:30;3.70;;;2.50;;